createdAt,value
2023-04-16T00:01:26.275Z,7.81
2023-04-16T00:03:52.960Z,7.71
2023-04-16T00:06:19.672Z,7.75
2023-04-16T00:08:46.236Z,7.77
2023-04-16T00:11:12.711Z,7.76
2023-04-16T00:13:40.248Z,7.80
2023-04-16T00:16:06.956Z,7.81
2023-04-16T00:18:39.455Z,7.77
2023-04-16T00:21:06.689Z,7.75
2023-04-16T00:23:33.196Z,7.85
2023-04-16T00:26:02.232Z,7.93
2023-04-16T00:28:28.721Z,7.93
2023-04-16T00:30:55.751Z,8.00
2023-04-16T00:33:22.323Z,7.95
2023-04-16T00:35:48.922Z,8.01
2023-04-16T00:38:15.451Z,8.00
2023-04-16T00:40:42.030Z,8.00
2023-04-16T00:43:08.496Z,8.02
2023-04-16T00:45:34.936Z,8.10
2023-04-16T00:48:01.619Z,8.02
2023-04-16T00:50:28.115Z,8.04
2023-04-16T00:52:56.592Z,8.01
2023-04-16T00:55:23.009Z,7.84
2023-04-16T00:57:49.386Z,7.85
2023-04-16T01:00:17.819Z,7.95
2023-04-16T01:02:47.356Z,7.93
2023-04-16T01:05:16.054Z,7.90
2023-04-16T01:07:42.436Z,8.00
2023-04-16T01:10:08.987Z,7.97
2023-04-16T01:12:35.381Z,8.08
2023-04-16T01:15:02.018Z,8.01
2023-04-16T01:17:33.580Z,7.88
2023-04-16T01:20:00.580Z,7.88
2023-04-16T01:22:27.818Z,7.93
2023-04-16T01:24:54.258Z,8.05
2023-04-16T01:27:20.609Z,8.00
2023-04-16T01:29:47.028Z,8.05
2023-04-16T01:32:13.361Z,8.11
2023-04-16T01:34:39.766Z,8.13
2023-04-16T01:37:06.116Z,8.16
2023-04-16T01:39:32.558Z,8.01
2023-04-16T01:41:58.958Z,8.12
2023-04-16T01:44:25.630Z,8.09
2023-04-16T01:46:52.118Z,8.08
2023-04-16T01:49:18.583Z,8.16
2023-04-16T01:51:48.213Z,8.16
2023-04-16T01:54:14.618Z,8.12
2023-04-16T01:56:48.388Z,8.17
2023-04-16T01:59:14.766Z,8.19
2023-04-16T02:01:42.451Z,8.19
2023-04-16T02:04:09.297Z,8.20
2023-04-16T02:06:41.814Z,8.18
2023-04-16T02:09:08.544Z,8.20
2023-04-16T02:11:35.086Z,8.24
2023-04-16T02:14:05.471Z,8.14
2023-04-16T02:16:31.889Z,8.14
2023-04-16T02:18:58.284Z,8.17
2023-04-16T02:21:28.904Z,8.20
2023-04-16T02:23:55.431Z,8.30
2023-04-16T02:26:21.799Z,8.31
2023-04-16T02:28:48.215Z,8.31
2023-04-16T02:31:17.930Z,8.26
2023-04-16T02:33:44.375Z,8.24
2023-04-16T02:36:11.312Z,8.29
2023-04-16T02:38:46.982Z,8.19
2023-04-16T02:41:15.336Z,8.25
2023-04-16T02:43:41.708Z,8.24
2023-04-16T02:46:08.159Z,8.28
2023-04-16T02:48:35.271Z,8.32
2023-04-16T02:51:01.723Z,8.33
2023-04-16T02:53:28.118Z,8.28
2023-04-16T02:56:00.245Z,8.28
2023-04-16T02:58:26.707Z,8.28
2023-04-16T03:00:56.276Z,8.20
2023-04-16T03:03:22.900Z,8.27
2023-04-16T03:05:49.330Z,8.24
2023-04-16T03:08:15.817Z,8.28
2023-04-16T03:10:42.206Z,8.34
2023-04-16T03:13:08.603Z,8.29
2023-04-16T03:15:35.065Z,8.34
2023-04-16T03:18:03.680Z,8.28
2023-04-16T03:20:30.357Z,8.30
2023-04-16T03:22:57.262Z,8.29
2023-04-16T03:25:23.670Z,8.18
2023-04-16T03:27:50.046Z,8.31
2023-04-16T03:30:16.544Z,8.32
2023-04-16T03:32:43.100Z,8.29
2023-04-16T03:35:10.234Z,8.39
2023-04-16T03:37:36.644Z,8.35
2023-04-16T03:40:05.115Z,8.27
2023-04-16T03:42:33.711Z,8.23
2023-04-16T03:45:00.770Z,8.35
2023-04-16T03:47:27.225Z,8.38
2023-04-16T03:49:53.675Z,8.23
2023-04-16T03:52:20.049Z,8.35
2023-04-16T03:54:46.416Z,8.28
2023-04-16T03:57:12.797Z,8.27
2023-04-16T03:59:39.138Z,8.26
2023-04-16T04:02:05.676Z,8.24
2023-04-16T04:04:32.797Z,8.28
2023-04-16T04:06:59.254Z,8.37
2023-04-16T04:09:25.733Z,8.35
2023-04-16T04:11:53.201Z,8.19
2023-04-16T04:14:19.644Z,8.17
2023-04-16T04:16:46.279Z,8.31
2023-04-16T04:19:12.768Z,8.32
2023-04-16T04:21:39.210Z,8.25
2023-04-16T04:24:05.615Z,8.13
2023-04-16T04:26:32.065Z,8.23
2023-04-16T04:28:58.511Z,8.30
2023-04-16T04:31:24.945Z,8.30
2023-04-16T04:33:51.357Z,8.30
2023-04-16T04:36:17.826Z,8.11
2023-04-16T04:38:48.361Z,8.14
2023-04-16T04:41:14.750Z,8.28
2023-04-16T04:43:49.710Z,8.32
2023-04-16T04:46:16.172Z,8.30
2023-04-16T04:48:42.725Z,8.23
2023-04-16T04:51:09.086Z,8.18
2023-04-16T04:53:35.631Z,8.12
2023-04-16T04:56:11.657Z,8.08
2023-04-16T04:58:38.961Z,8.06
2023-04-16T05:01:06.769Z,8.10
2023-04-16T05:03:33.275Z,8.07
2023-04-16T05:06:16.870Z,8.02
2023-04-16T05:08:43.223Z,8.08
2023-04-16T05:11:09.634Z,8.11
2023-04-16T05:13:36.063Z,8.12
2023-04-16T05:16:03.533Z,8.12
2023-04-16T05:18:29.939Z,8.10
2023-04-16T05:20:56.362Z,8.08
2023-04-16T05:23:22.733Z,8.06
2023-04-16T05:25:49.141Z,8.04
2023-04-16T05:28:15.619Z,8.02
2023-04-16T05:30:42.060Z,8.05
2023-04-16T05:33:08.467Z,8.08
2023-04-16T05:35:35.196Z,8.07
2023-04-16T05:38:01.532Z,8.12
2023-04-16T05:40:27.956Z,8.14
2023-04-16T05:42:54.285Z,8.13
2023-04-16T05:45:20.728Z,8.22
2023-04-16T05:47:47.187Z,8.21
2023-04-16T05:50:13.681Z,8.30
2023-04-16T05:52:40.116Z,8.23
2023-04-16T05:55:07.150Z,8.31
2023-04-16T05:57:33.576Z,8.33
2023-04-16T05:59:59.960Z,8.36
2023-04-16T06:02:26.517Z,8.40
2023-04-16T06:04:53.045Z,8.37
2023-04-16T06:07:19.398Z,8.34
2023-04-16T06:09:45.830Z,8.33
2023-04-16T06:12:12.490Z,8.35
2023-04-16T06:14:38.894Z,8.35
2023-04-16T06:17:05.594Z,8.35
2023-04-16T06:19:42.128Z,8.37
2023-04-16T06:22:08.737Z,8.34
2023-04-16T06:24:35.133Z,8.42
2023-04-16T06:27:01.684Z,8.52
2023-04-16T06:29:37.387Z,8.52
2023-04-16T06:32:09.118Z,8.65
2023-04-16T06:34:44.561Z,8.67
2023-04-16T06:37:10.985Z,8.73
2023-04-16T06:39:37.359Z,8.80
2023-04-16T06:42:04.145Z,8.79
2023-04-16T06:44:30.662Z,8.93
2023-04-16T06:46:57.083Z,9.03
2023-04-16T06:49:40.360Z,9.05
2023-04-16T06:52:06.855Z,9.08
2023-04-16T06:54:33.275Z,9.15
2023-04-16T06:57:00.269Z,9.12
2023-04-16T06:59:26.655Z,9.10
2023-04-16T07:01:55.298Z,9.12
2023-04-16T07:04:21.886Z,9.14
2023-04-16T07:06:48.384Z,9.14
2023-04-16T07:09:14.757Z,9.13
2023-04-16T07:11:41.797Z,9.21
2023-04-16T07:14:08.275Z,9.21
2023-04-16T07:16:34.777Z,9.24
2023-04-16T07:19:01.223Z,9.21
2023-04-16T07:21:30.202Z,9.21
2023-04-16T07:23:56.579Z,9.14
2023-04-16T07:26:30.455Z,9.20
2023-04-16T07:28:56.829Z,9.07
2023-04-16T07:31:23.382Z,9.32
2023-04-16T07:33:51.019Z,9.42
2023-04-16T07:36:18.546Z,9.45
2023-04-16T07:38:44.897Z,9.49
2023-04-16T07:41:11.304Z,9.50
2023-04-16T07:43:37.662Z,9.50
2023-04-16T07:46:05.139Z,9.44
2023-04-16T07:48:31.672Z,9.48
2023-04-16T07:50:58.181Z,9.51
2023-04-16T07:53:25.945Z,9.51
2023-04-16T07:55:52.401Z,9.62
2023-04-16T07:58:19.837Z,9.66
2023-04-16T08:00:46.310Z,9.66
2023-04-16T08:03:13.044Z,9.74
2023-04-16T08:05:40.660Z,9.82
2023-04-16T08:08:07.079Z,9.95
2023-04-16T08:10:33.775Z,10.02
2023-04-16T08:13:00.570Z,10.18
2023-04-16T08:15:27.411Z,10.34
2023-04-16T08:17:53.877Z,10.36
2023-04-16T08:20:21.404Z,10.35
2023-04-16T08:22:56.990Z,10.38
2023-04-16T08:25:25.349Z,10.35
2023-04-16T08:27:51.754Z,10.30
2023-04-16T08:30:24.003Z,10.33
2023-04-16T08:32:50.714Z,10.33
2023-04-16T08:35:17.241Z,10.40
2023-04-16T08:37:43.666Z,10.46
2023-04-16T08:40:19.189Z,10.52
2023-04-16T08:42:49.728Z,10.58
2023-04-16T08:45:19.264Z,10.51
2023-04-16T08:47:48.400Z,10.62
2023-04-16T08:50:16.590Z,10.81
2023-04-16T08:52:51.660Z,10.90
2023-04-16T08:55:33.869Z,10.84
2023-04-16T08:58:01.372Z,11.12
2023-04-16T09:00:31.711Z,10.90
2023-04-16T09:02:59.352Z,11.14
2023-04-16T09:05:39.528Z,11.21
2023-04-16T09:08:06.793Z,11.12
2023-04-16T09:10:33.575Z,11.17
2023-04-16T09:13:01.314Z,10.64
2023-04-16T09:15:29.534Z,11.15
2023-04-16T09:17:57.588Z,11.22
2023-04-16T09:20:24.286Z,11.33
2023-04-16T09:22:50.816Z,11.57
2023-04-16T09:25:17.438Z,11.62
2023-04-16T09:27:43.882Z,11.68
2023-04-16T09:30:24.571Z,11.77
2023-04-16T09:32:52.342Z,11.86
2023-04-16T09:35:42.522Z,11.97
2023-04-16T09:38:21.177Z,12.01
2023-04-16T09:40:47.761Z,12.12
2023-04-16T09:43:15.458Z,12.15
2023-04-16T09:46:08.744Z,12.10
2023-04-16T09:48:38.283Z,12.08
2023-04-16T09:51:06.234Z,12.06
2023-04-16T09:53:32.735Z,12.15
2023-04-16T09:56:00.389Z,11.91
2023-04-16T09:58:33.155Z,12.05
2023-04-16T10:01:03.274Z,11.81
2023-04-16T10:03:33.249Z,11.93
2023-04-16T10:06:00.973Z,11.90
2023-04-16T10:08:28.221Z,11.80
2023-04-16T10:10:56.457Z,11.76
2023-04-16T10:13:22.931Z,12.00
2023-04-16T10:15:57.985Z,12.04
2023-04-16T10:18:25.418Z,11.97
2023-04-16T10:21:06.221Z,12.08
2023-04-16T10:23:33.309Z,11.93
2023-04-16T10:26:01.458Z,12.10
2023-04-16T10:28:35.678Z,12.09
2023-04-16T10:31:03.539Z,12.25
2023-04-16T10:33:34.512Z,12.41
2023-04-16T10:36:17.433Z,12.56
2023-04-16T10:38:48.083Z,12.78
2023-04-16T10:41:14.725Z,12.71
2023-04-16T10:43:45.351Z,12.71
2023-04-16T10:46:26.301Z,12.64
2023-04-16T10:48:54.518Z,12.82
2023-04-16T10:51:33.994Z,12.90
2023-04-16T10:54:09.293Z,12.91
2023-04-16T10:56:37.247Z,13.03
2023-04-16T10:59:10.060Z,13.03
2023-04-16T11:01:41.165Z,13.04
2023-04-16T11:04:19.684Z,12.98
2023-04-16T11:07:05.689Z,13.07
2023-04-16T11:09:50.569Z,13.31
2023-04-16T11:12:18.399Z,12.99
2023-04-16T11:14:53.050Z,13.45
2023-04-16T11:17:32.303Z,13.48
2023-04-16T11:19:59.965Z,13.62
2023-04-16T11:22:27.481Z,13.65
2023-04-16T11:25:00.868Z,13.30
2023-04-16T11:27:27.378Z,13.44
2023-04-16T11:30:05.389Z,13.53
2023-04-16T11:32:38.615Z,13.83
2023-04-16T11:35:16.893Z,13.34
2023-04-16T11:37:43.942Z,13.69
2023-04-16T11:40:11.609Z,13.34
2023-04-16T11:42:41.076Z,13.35
2023-04-16T11:45:08.463Z,13.72
2023-04-16T11:47:55.398Z,13.83
2023-04-16T11:50:22.999Z,13.65
2023-04-16T11:52:50.041Z,14.08
2023-04-16T11:55:16.727Z,14.23
2023-04-16T11:57:43.377Z,13.64
2023-04-16T12:00:13.003Z,13.98
2023-04-16T12:02:42.662Z,14.07
2023-04-16T12:05:28.681Z,13.99
2023-04-16T12:07:58.179Z,14.04
2023-04-16T12:10:25.073Z,14.25
2023-04-16T12:12:51.954Z,14.16
2023-04-16T12:15:20.367Z,14.32
2023-04-16T12:17:47.900Z,14.41
2023-04-16T12:20:15.706Z,14.63
2023-04-16T12:22:46.544Z,14.82
2023-04-16T12:25:13.274Z,14.87
2023-04-16T12:27:54.104Z,14.74
2023-04-16T12:30:22.673Z,14.68
2023-04-16T12:32:50.113Z,14.50
2023-04-16T12:35:49.389Z,14.54
2023-04-16T12:38:15.891Z,14.61
2023-04-16T12:40:44.412Z,14.28
2023-04-16T12:43:12.278Z,14.17
2023-04-16T12:45:39.445Z,14.00
2023-04-16T12:48:06.006Z,14.17
2023-04-16T12:50:32.486Z,14.39
2023-04-16T12:52:59.322Z,14.41
2023-04-16T12:55:33.754Z,14.25
2023-04-16T12:58:00.183Z,14.35
2023-04-16T13:00:26.655Z,14.26
2023-04-16T13:02:53.233Z,14.29
2023-04-16T13:05:23.821Z,14.36
2023-04-16T13:07:51.239Z,14.26
2023-04-16T13:10:21.118Z,14.47
2023-04-16T13:12:47.533Z,14.38
2023-04-16T13:15:14.033Z,14.51
2023-04-16T13:17:42.615Z,14.71
2023-04-16T13:20:15.016Z,15.08
2023-04-16T13:22:41.394Z,15.23
2023-04-16T13:25:08.200Z,15.23
2023-04-16T13:27:34.636Z,14.93
2023-04-16T13:30:01.305Z,14.65
2023-04-16T13:32:29.778Z,15.13
2023-04-16T13:34:56.324Z,15.10
2023-04-16T13:37:29.699Z,15.15
2023-04-16T13:40:05.426Z,15.20
2023-04-16T13:42:36.094Z,15.19
2023-04-16T13:45:02.809Z,15.07
2023-04-16T13:47:32.257Z,15.02
2023-04-16T13:49:58.780Z,15.09
2023-04-16T13:52:27.206Z,14.91
2023-04-16T13:55:00.141Z,14.76
2023-04-16T13:57:27.110Z,14.94
2023-04-16T13:59:53.552Z,14.80
2023-04-16T14:02:20.558Z,14.60
2023-04-16T14:04:46.967Z,14.50
2023-04-16T14:07:14.380Z,14.75
2023-04-16T14:09:41.124Z,14.71
2023-04-16T14:12:07.722Z,14.80
2023-04-16T14:14:35.221Z,14.66
2023-04-16T14:17:03.315Z,14.80
2023-04-16T14:19:30.186Z,15.07
2023-04-16T14:21:56.576Z,15.04
2023-04-16T14:24:23.033Z,15.17
2023-04-16T14:26:49.476Z,15.13
2023-04-16T14:29:16.187Z,15.02
2023-04-16T14:31:42.673Z,15.05
2023-04-16T14:34:09.728Z,15.16
2023-04-16T14:36:36.556Z,15.09
2023-04-16T14:39:04.725Z,15.17
2023-04-16T14:41:32.169Z,15.25
2023-04-16T14:43:59.165Z,15.03
2023-04-16T14:46:27.124Z,15.09
2023-04-16T14:48:55.746Z,15.25
2023-04-16T14:51:22.127Z,15.07
2023-04-16T14:53:48.538Z,15.23
2023-04-16T14:56:15.949Z,15.19
2023-04-16T14:58:44.481Z,15.54
2023-04-16T15:01:13.671Z,15.51
2023-04-16T15:03:40.446Z,15.30
2023-04-16T15:06:08.676Z,15.17
2023-04-16T15:08:35.457Z,15.13
2023-04-16T15:11:01.855Z,15.14
2023-04-16T15:13:39.100Z,15.26
2023-04-16T15:16:05.631Z,15.25
2023-04-16T15:18:32.671Z,15.50
2023-04-16T15:20:59.105Z,15.29
2023-04-16T15:23:25.676Z,15.41
2023-04-16T15:25:52.070Z,15.39
2023-04-16T15:28:18.475Z,15.32
2023-04-16T15:30:45.037Z,15.07
2023-04-16T15:33:11.890Z,15.01
2023-04-16T15:35:46.818Z,15.38
2023-04-16T15:38:22.261Z,15.67
2023-04-16T15:40:48.669Z,15.67
2023-04-16T15:43:15.740Z,15.55
2023-04-16T15:45:42.168Z,15.38
2023-04-16T15:48:14.325Z,15.21
2023-04-16T15:50:46.303Z,15.25
2023-04-16T15:53:14.779Z,15.51
2023-04-16T15:55:42.141Z,15.59
2023-04-16T15:58:08.680Z,15.29
2023-04-16T16:00:36.191Z,15.22
2023-04-16T16:03:10.333Z,15.12
2023-04-16T16:05:37.848Z,15.20
2023-04-16T16:08:06.547Z,15.09
2023-04-16T16:10:33.833Z,14.98
2023-04-16T16:13:05.374Z,14.82
2023-04-16T16:15:32.912Z,14.78
2023-04-16T16:17:59.505Z,14.72
2023-04-16T16:20:26.089Z,14.68
2023-04-16T16:22:53.689Z,14.59
2023-04-16T16:25:33.746Z,14.54
2023-04-16T16:28:07.188Z,14.12
2023-04-16T16:30:33.663Z,14.02
2023-04-16T16:33:00.141Z,14.17
2023-04-16T16:35:32.566Z,14.30
2023-04-16T16:37:59.430Z,14.31
2023-04-16T16:40:26.655Z,14.29
2023-04-16T16:42:53.111Z,14.25
2023-04-16T16:45:20.065Z,14.39
2023-04-16T16:47:46.851Z,14.20
2023-04-16T16:50:13.606Z,13.91
2023-04-16T16:52:40.138Z,13.79
2023-04-16T16:55:10.837Z,13.77
2023-04-16T16:57:38.260Z,13.55
2023-04-16T17:00:15.178Z,13.44
2023-04-16T17:02:41.741Z,13.62
2023-04-16T17:05:08.415Z,13.54
2023-04-16T17:07:34.840Z,13.58
2023-04-16T17:10:16.277Z,13.38
2023-04-16T17:12:42.662Z,13.42
2023-04-16T17:15:09.373Z,13.44
2023-04-16T17:17:35.979Z,13.46
2023-04-16T17:20:08.241Z,13.33
2023-04-16T17:22:34.707Z,13.25
2023-04-16T17:25:01.937Z,13.19
2023-04-16T17:27:29.475Z,13.08
2023-04-16T17:30:00.157Z,13.06
2023-04-16T17:32:26.947Z,12.95
2023-04-16T17:34:56.372Z,12.87
2023-04-16T17:37:25.031Z,12.86
2023-04-16T17:39:51.568Z,12.75
2023-04-16T17:42:18.007Z,12.75
2023-04-16T17:44:44.798Z,12.72
2023-04-16T17:47:11.230Z,12.62
2023-04-16T17:49:37.674Z,12.64
2023-04-16T17:52:04.488Z,12.66
2023-04-16T17:54:32.983Z,12.56
2023-04-16T17:56:59.426Z,12.57
2023-04-16T17:59:25.969Z,12.51
2023-04-16T18:01:52.504Z,12.25
2023-04-16T18:04:26.550Z,12.11
2023-04-16T18:06:53.081Z,12.02
2023-04-16T18:09:20.596Z,11.93
2023-04-16T18:11:46.987Z,11.76
2023-04-16T18:14:16.839Z,11.35
2023-04-16T18:16:46.318Z,11.27
2023-04-16T18:19:13.123Z,11.33
2023-04-16T18:21:39.738Z,11.27
2023-04-16T18:24:06.685Z,11.27
2023-04-16T18:26:35.637Z,11.21
2023-04-16T18:29:03.971Z,11.21
2023-04-16T18:31:31.624Z,11.02
2023-04-16T18:33:59.237Z,11.01
2023-04-16T18:36:27.223Z,11.11
2023-04-16T18:39:01.649Z,11.06
2023-04-16T18:41:30.936Z,10.97
2023-04-16T18:43:57.511Z,10.92
2023-04-16T18:46:24.161Z,10.82
2023-04-16T18:48:50.783Z,10.73
2023-04-16T18:51:17.276Z,10.88
2023-04-16T18:53:45.443Z,10.90
2023-04-16T18:56:13.278Z,10.88
2023-04-16T18:58:43.311Z,10.83
2023-04-16T19:01:16.930Z,10.67
2023-04-16T19:03:43.522Z,10.71
2023-04-16T19:06:09.961Z,10.62
2023-04-16T19:08:36.459Z,10.54
2023-04-16T19:11:02.869Z,10.42
2023-04-16T19:13:33.637Z,10.54
2023-04-16T19:16:01.530Z,10.53
2023-04-16T19:18:36.076Z,10.38
2023-04-16T19:21:02.526Z,10.52
2023-04-16T19:23:29.273Z,10.27
2023-04-16T19:26:01.739Z,10.48
2023-04-16T19:28:43.740Z,10.45
2023-04-16T19:31:10.186Z,10.35
2023-04-16T19:33:36.648Z,10.28
2023-04-16T19:36:03.125Z,10.19
2023-04-16T19:38:31.670Z,10.14
2023-04-16T19:40:58.754Z,10.12
2023-04-16T19:43:25.308Z,9.95
2023-04-16T19:45:54.823Z,10.02
2023-04-16T19:48:21.505Z,10.13
2023-04-16T19:50:48.592Z,9.90
2023-04-16T19:53:17.369Z,10.03
2023-04-16T19:55:43.900Z,10.04
2023-04-16T19:58:10.623Z,9.97
2023-04-16T20:00:37.919Z,9.91
2023-04-16T20:03:04.891Z,9.92
2023-04-16T20:05:31.900Z,10.05
2023-04-16T20:08:06.598Z,9.90
2023-04-16T20:10:32.969Z,9.91
2023-04-16T20:13:00.205Z,9.94
2023-04-16T20:15:28.654Z,9.85
2023-04-16T20:18:01.094Z,9.83
2023-04-16T20:20:27.523Z,9.92
2023-04-16T20:22:56.008Z,9.97
2023-04-16T20:25:22.797Z,9.83
2023-04-16T20:27:49.311Z,9.92
2023-04-16T20:30:15.867Z,10.00
2023-04-16T20:32:42.291Z,9.99
2023-04-16T20:35:11.568Z,9.97
2023-04-16T20:37:38.611Z,10.00
2023-04-16T20:40:06.386Z,9.97
2023-04-16T20:42:35.122Z,9.96
2023-04-16T20:45:01.602Z,9.93
2023-04-16T20:47:27.992Z,9.99
2023-04-16T20:50:02.262Z,9.90
2023-04-16T20:52:28.721Z,9.84
2023-04-16T20:54:55.367Z,9.66
2023-04-16T20:57:21.752Z,9.65
2023-04-16T20:59:49.151Z,9.60
2023-04-16T21:02:15.745Z,9.52
2023-04-16T21:04:43.002Z,9.42
2023-04-16T21:07:09.837Z,9.35
2023-04-16T21:09:36.273Z,9.26
2023-04-16T21:12:03.280Z,9.42
2023-04-16T21:14:37.767Z,9.53
2023-04-16T21:17:04.246Z,9.49
2023-04-16T21:19:30.993Z,9.42
2023-04-16T21:21:57.955Z,9.32
2023-04-16T21:24:24.415Z,9.38
2023-04-16T21:26:50.818Z,9.22
2023-04-16T21:29:17.232Z,9.22
2023-04-16T21:31:43.707Z,9.14
2023-04-16T21:34:10.182Z,8.96
2023-04-16T21:36:37.228Z,9.20
2023-04-16T21:39:05.743Z,9.15
2023-04-16T21:41:32.177Z,9.19
2023-04-16T21:43:58.616Z,9.14
2023-04-16T21:46:26.431Z,9.16
2023-04-16T21:48:53.677Z,9.26
2023-04-16T21:51:28.853Z,9.18
2023-04-16T21:53:58.479Z,9.13
2023-04-16T21:56:25.879Z,8.98
2023-04-16T21:58:52.324Z,8.87
2023-04-16T22:01:18.823Z,8.87
2023-04-16T22:03:50.745Z,8.85
2023-04-16T22:06:17.360Z,8.71
2023-04-16T22:08:43.778Z,8.76
2023-04-16T22:11:10.282Z,8.68
2023-04-16T22:13:38.161Z,8.60
2023-04-16T22:16:05.728Z,8.54
2023-04-16T22:18:36.113Z,8.66
2023-04-16T22:21:02.800Z,8.63
2023-04-16T22:23:29.392Z,8.64
2023-04-16T22:25:56.111Z,8.78
2023-04-16T22:28:25.557Z,8.70
2023-04-16T22:30:51.962Z,8.64
2023-04-16T22:33:20.341Z,8.55
2023-04-16T22:35:46.752Z,8.68
2023-04-16T22:38:31.590Z,8.88
2023-04-16T22:40:57.981Z,8.94
2023-04-16T22:43:24.407Z,8.82
2023-04-16T22:46:00.390Z,8.74
2023-04-16T22:48:26.767Z,8.67
2023-04-16T22:50:53.200Z,8.63
2023-04-16T22:53:19.597Z,8.65
2023-04-16T22:55:45.984Z,8.76
2023-04-16T22:58:12.381Z,8.72
2023-04-16T23:00:44.054Z,8.64
2023-04-16T23:03:10.766Z,8.62
2023-04-16T23:05:39.225Z,8.69
2023-04-16T23:08:05.729Z,8.54
2023-04-16T23:10:32.172Z,8.62
2023-04-16T23:12:59.608Z,8.64
2023-04-16T23:15:26.375Z,8.71
2023-04-16T23:18:01.863Z,8.65
2023-04-16T23:20:28.835Z,8.58
2023-04-16T23:22:55.211Z,8.52
2023-04-16T23:25:23.540Z,8.52
2023-04-16T23:27:49.972Z,8.56
2023-04-16T23:30:17.438Z,8.65
2023-04-16T23:32:43.787Z,8.62
2023-04-16T23:35:10.220Z,8.64
2023-04-16T23:37:36.654Z,8.65
2023-04-16T23:40:04.024Z,8.53
2023-04-16T23:42:30.555Z,8.45
2023-04-16T23:44:57.032Z,8.27
2023-04-16T23:47:24.512Z,8.30
2023-04-16T23:49:51.052Z,8.44
2023-04-16T23:52:22.490Z,8.58
2023-04-16T23:54:48.884Z,8.64
2023-04-16T23:57:15.560Z,8.58
2023-04-16T23:59:42.075Z,8.51
